createdAt,value
2022-10-13T00:01:12.432Z,62.50
2022-10-13T00:03:43.031Z,47.35
2022-10-13T00:06:11.910Z,34.60
2022-10-13T00:08:40.926Z,68.28
2022-10-13T00:11:20.286Z,78.03
2022-10-13T00:13:48.360Z,52.08
2022-10-13T00:16:17.736Z,47.42
2022-10-13T00:18:45.085Z,51.05
2022-10-13T00:21:17.916Z,38.75
2022-10-13T00:23:45.263Z,35.05
2022-10-13T00:26:14.554Z,40.45
2022-10-13T00:28:42.018Z,39.67
2022-10-13T00:31:35.577Z,35.72
2022-10-13T00:34:02.482Z,43.63
2022-10-13T00:36:29.888Z,56.17
2022-10-13T00:38:58.511Z,51.40
2022-10-13T00:41:25.462Z,29.67
2022-10-13T00:44:01.236Z,31.77
2022-10-13T00:46:37.870Z,35.65
2022-10-13T00:49:13.800Z,46.70
2022-10-13T00:51:49.045Z,52.30
2022-10-13T00:54:24.805Z,35.08
2022-10-13T00:56:52.600Z,26.80
2022-10-13T00:59:23.709Z,34.00
2022-10-13T01:01:53.663Z,41.08
2022-10-13T01:04:22.739Z,47.55
2022-10-13T01:06:50.213Z,44.45
2022-10-13T01:09:17.084Z,41.28
2022-10-13T01:12:08.280Z,32.15
2022-10-13T01:14:45.007Z,34.30
2022-10-13T01:17:32.014Z,44.58
2022-10-13T01:20:23.640Z,31.67
2022-10-13T01:23:21.199Z,34.58
2022-10-13T01:26:07.146Z,29.50
2022-10-13T01:28:52.632Z,23.27
2022-10-13T01:31:43.046Z,33.10
2022-10-13T01:34:15.842Z,27.50
2022-10-13T01:37:05.330Z,29.10
2022-10-13T01:39:54.305Z,33.95
2022-10-13T01:42:44.569Z,41.85
2022-10-13T01:45:19.249Z,90.25
2022-10-13T01:47:47.615Z,61.80
2022-10-13T01:50:17.100Z,98.95
2022-10-13T01:52:44.890Z,88.47
2022-10-13T01:55:13.176Z,42.05
2022-10-13T01:57:42.415Z,50.25
2022-10-13T02:00:11.111Z,30.65
2022-10-13T02:02:58.289Z,60.85
2022-10-13T02:05:44.079Z,39.33
2022-10-13T02:08:19.108Z,27.20
2022-10-13T02:10:58.831Z,20.27
2022-10-13T02:13:28.588Z,19.42
2022-10-13T02:16:00.976Z,22.65
2022-10-13T02:18:33.725Z,21.20
2022-10-13T02:21:01.657Z,22.50
2022-10-13T02:23:28.856Z,22.00
2022-10-13T02:25:58.674Z,20.77
2022-10-13T02:28:25.930Z,28.63
2022-10-13T02:30:52.688Z,35.85
2022-10-13T02:33:19.451Z,30.85
2022-10-13T02:35:46.131Z,29.92
2022-10-13T02:38:12.743Z,47.15
2022-10-13T02:40:39.455Z,38.53
2022-10-13T02:43:06.100Z,32.75
2022-10-13T02:45:32.742Z,25.90
2022-10-13T02:47:59.471Z,27.35
2022-10-13T02:50:26.315Z,44.03
2022-10-13T02:52:53.275Z,30.90
2022-10-13T02:55:19.952Z,49.78
2022-10-13T02:57:47.722Z,35.92
2022-10-13T03:00:15.108Z,37.00
2022-10-13T03:02:42.257Z,43.35
2022-10-13T03:05:09.910Z,23.55
2022-10-13T03:07:36.664Z,27.65
2022-10-13T03:10:05.154Z,22.10
2022-10-13T03:12:32.116Z,27.88
2022-10-13T03:14:58.879Z,25.85
2022-10-13T03:17:25.860Z,23.42
2022-10-13T03:19:52.804Z,20.95
2022-10-13T03:22:19.702Z,28.95
2022-10-13T03:24:46.534Z,33.75
2022-10-13T03:27:13.220Z,30.25
2022-10-13T03:29:39.902Z,25.77
2022-10-13T03:32:06.667Z,25.65
2022-10-13T03:34:33.353Z,18.58
2022-10-13T03:37:00.039Z,22.45
2022-10-13T03:39:32.002Z,23.80
2022-10-13T03:41:58.798Z,29.35
2022-10-13T03:44:25.719Z,32.55
2022-10-13T03:46:53.122Z,32.95
2022-10-13T03:49:19.759Z,31.80
2022-10-13T03:51:46.495Z,28.20
2022-10-13T03:54:13.513Z,19.55
2022-10-13T03:56:41.056Z,19.67
2022-10-13T03:59:08.377Z,33.58
2022-10-13T04:01:35.272Z,31.23
2022-10-13T04:04:04.883Z,32.58
2022-10-13T04:06:31.830Z,23.85
2022-10-13T04:08:59.096Z,42.63
2022-10-13T04:11:26.010Z,39.88
2022-10-13T04:13:56.671Z,44.42
2022-10-13T04:16:26.280Z,43.90
2022-10-13T04:18:57.484Z,34.85
2022-10-13T04:21:25.087Z,27.02
2022-10-13T04:23:54.097Z,36.22
2022-10-13T04:26:22.315Z,31.13
2022-10-13T04:28:50.727Z,33.65
2022-10-13T04:31:18.049Z,31.67
2022-10-13T04:33:45.799Z,25.45
2022-10-13T04:36:14.365Z,25.83
2022-10-13T04:38:42.195Z,23.33
2022-10-13T04:41:10.370Z,30.80
2022-10-13T04:43:37.408Z,31.10
2022-10-13T04:46:06.820Z,22.50
2022-10-13T04:48:33.472Z,25.33
2022-10-13T04:51:05.934Z,27.92
2022-10-13T04:53:32.737Z,27.30
2022-10-13T04:56:05.063Z,30.45
2022-10-13T04:58:31.979Z,27.63
2022-10-13T05:01:01.983Z,28.20
2022-10-13T05:03:28.662Z,33.00
2022-10-13T05:05:55.381Z,21.73
2022-10-13T05:08:22.392Z,28.38
2022-10-13T05:10:59.573Z,42.50
2022-10-13T05:13:27.666Z,34.25
2022-10-13T05:15:57.324Z,25.30
2022-10-13T05:18:24.825Z,24.33
2022-10-13T05:20:51.622Z,27.73
2022-10-13T05:23:18.287Z,26.77
2022-10-13T05:25:45.206Z,31.15
2022-10-13T05:28:14.577Z,30.40
2022-10-13T05:30:41.329Z,35.25
2022-10-13T05:33:07.973Z,28.10
2022-10-13T05:35:34.629Z,48.65
2022-10-13T05:38:01.258Z,44.15
2022-10-13T05:40:29.299Z,31.27
2022-10-13T05:43:00.481Z,35.30
2022-10-13T05:45:29.590Z,32.28
2022-10-13T05:47:56.231Z,35.10
2022-10-13T05:50:22.987Z,31.48
2022-10-13T05:52:51.579Z,33.38
2022-10-13T05:55:19.285Z,27.40
2022-10-13T05:57:51.999Z,28.00
2022-10-13T06:00:20.510Z,23.02
2022-10-13T06:02:57.748Z,25.40
2022-10-13T06:05:27.551Z,25.95
2022-10-13T06:07:56.133Z,20.67
2022-10-13T06:10:23.525Z,30.73
2022-10-13T06:12:50.426Z,32.90
2022-10-13T06:15:17.208Z,25.75
2022-10-13T06:17:44.040Z,23.27
2022-10-13T06:20:11.465Z,24.20
2022-10-13T06:22:38.433Z,21.17
2022-10-13T06:25:07.088Z,23.23
2022-10-13T06:27:33.907Z,25.33
2022-10-13T06:30:00.581Z,20.55
2022-10-13T06:32:27.414Z,22.05
2022-10-13T06:34:54.179Z,21.20
2022-10-13T06:37:26.927Z,21.67
2022-10-13T06:39:53.930Z,19.52
2022-10-13T06:42:20.919Z,20.45
2022-10-13T06:44:59.791Z,23.02
2022-10-13T06:47:26.447Z,20.65
2022-10-13T06:49:53.178Z,21.70
2022-10-13T06:52:20.297Z,19.60
2022-10-13T06:54:47.185Z,20.10
2022-10-13T06:57:13.836Z,22.13
2022-10-13T06:59:40.511Z,20.88
2022-10-13T07:02:07.166Z,21.23
2022-10-13T07:04:33.945Z,19.48
2022-10-13T07:07:00.610Z,20.52
2022-10-13T07:09:27.409Z,23.48
2022-10-13T07:11:54.106Z,22.23
2022-10-13T07:14:20.774Z,20.70
2022-10-13T07:16:50.352Z,21.02
2022-10-13T07:19:17.019Z,21.08
2022-10-13T07:21:43.664Z,23.13
2022-10-13T07:24:11.767Z,24.08
2022-10-13T07:26:38.581Z,22.58
2022-10-13T07:29:05.258Z,19.77
2022-10-13T07:31:32.195Z,24.02
2022-10-13T07:34:00.084Z,21.65
2022-10-13T07:36:28.095Z,24.40
2022-10-13T07:38:54.757Z,23.35
2022-10-13T07:41:21.463Z,22.08
2022-10-13T07:43:48.094Z,24.42
2022-10-13T07:46:14.776Z,26.38
2022-10-13T07:48:41.813Z,22.38
2022-10-13T07:51:13.338Z,20.23
2022-10-13T07:53:41.864Z,27.30
2022-10-13T07:56:11.886Z,21.40
2022-10-13T07:58:40.087Z,22.05
2022-10-13T08:01:07.404Z,24.50
2022-10-13T08:03:38.025Z,22.77
2022-10-13T08:06:06.103Z,25.20
2022-10-13T08:08:33.331Z,25.00
2022-10-13T08:11:06.699Z,23.02
2022-10-13T08:13:34.867Z,19.70
2022-10-13T08:16:12.890Z,17.95
2022-10-13T08:18:39.563Z,19.58
2022-10-13T08:21:45.956Z,23.58
2022-10-13T08:23:59.635Z,21.02
2022-10-13T08:26:28.558Z,19.50
2022-10-13T08:29:16.880Z,20.13
2022-10-13T08:31:43.779Z,17.42
2022-10-13T08:34:11.261Z,17.30
2022-10-13T08:36:38.777Z,17.63
2022-10-13T08:39:05.731Z,19.70
2022-10-13T08:41:38.499Z,24.92
2022-10-13T08:47:28.283Z,16.40
2022-10-13T08:50:02.481Z,14.07
2022-10-13T08:52:42.487Z,20.70
2022-10-13T08:55:20.823Z,15.93
2022-10-13T08:57:47.763Z,16.30
2022-10-13T09:00:15.938Z,16.70
2022-10-13T09:02:48.025Z,16.52
2022-10-13T09:05:31.144Z,17.55
2022-10-13T09:08:09.604Z,17.17
2022-10-13T09:10:47.991Z,17.63
2022-10-13T09:15:47.931Z,19.27
2022-10-13T09:18:17.001Z,20.05
2022-10-13T09:20:43.972Z,16.52
2022-10-13T09:23:23.070Z,19.55
2022-10-13T09:25:51.954Z,15.50
2022-10-13T09:28:28.886Z,15.35
2022-10-13T09:31:27.101Z,16.90
2022-10-13T09:34:03.634Z,13.45
2022-10-13T09:36:31.319Z,16.35
2022-10-13T09:39:12.519Z,19.95
2022-10-13T09:41:41.968Z,18.33
2022-10-13T09:44:29.087Z,16.67
2022-10-13T09:46:59.455Z,16.13
2022-10-13T09:49:37.841Z,15.88
2022-10-13T09:52:13.093Z,15.02
2022-10-13T09:54:39.686Z,14.10
2022-10-13T09:57:30.054Z,14.90
2022-10-13T10:00:27.302Z,14.70
2022-10-13T10:03:10.969Z,18.02
2022-10-13T10:05:50.836Z,15.57
2022-10-13T10:08:33.797Z,18.08
2022-10-13T10:11:12.406Z,18.75
2022-10-13T10:13:39.130Z,18.08
2022-10-13T10:16:19.963Z,16.05
2022-10-13T10:18:58.764Z,16.05
2022-10-13T10:21:52.069Z,15.57
2022-10-13T10:24:27.933Z,14.70
2022-10-13T10:27:01.616Z,15.18
2022-10-13T10:29:52.474Z,14.05
2022-10-13T10:32:42.889Z,13.82
2022-10-13T10:35:27.643Z,13.77
2022-10-13T10:38:01.647Z,11.48
2022-10-13T10:41:01.083Z,12.93
2022-10-13T10:43:36.284Z,14.88
2022-10-13T10:46:05.857Z,13.13
2022-10-13T10:48:39.228Z,14.40
2022-10-13T10:51:09.329Z,16.20
2022-10-13T10:53:57.854Z,13.65
2022-10-13T10:56:47.212Z,14.35
2022-10-13T10:59:30.902Z,12.82
2022-10-13T11:02:03.554Z,11.30
2022-10-13T11:04:38.479Z,13.88
2022-10-13T11:07:11.054Z,15.85
2022-10-13T11:09:43.618Z,11.45
2022-10-13T11:12:19.593Z,11.27
2022-10-13T11:14:47.973Z,10.90
2022-10-13T11:17:19.633Z,10.55
2022-10-13T11:19:48.316Z,13.10
2022-10-13T11:22:19.013Z,13.38
2022-10-13T11:24:56.009Z,9.65
2022-10-13T11:27:36.787Z,14.75
2022-10-13T11:30:06.296Z,12.02
2022-10-13T11:32:32.864Z,11.18
2022-10-13T11:35:05.438Z,9.80
2022-10-13T11:38:06.018Z,13.02
2022-10-13T11:40:42.152Z,12.00
2022-10-13T11:43:18.071Z,10.48
2022-10-13T11:46:18.784Z,15.13
2022-10-13T11:48:51.215Z,16.20
2022-10-13T11:51:35.245Z,13.93
2022-10-13T11:54:23.714Z,15.85
2022-10-13T11:56:53.572Z,15.57
2022-10-13T11:59:28.104Z,12.85
2022-10-13T12:01:57.043Z,11.27
2022-10-13T12:04:27.110Z,12.57
2022-10-13T12:06:58.239Z,12.75
2022-10-13T12:09:25.338Z,14.27
2022-10-13T12:12:07.426Z,14.25
2022-10-13T12:14:44.326Z,14.55
2022-10-13T12:17:27.020Z,11.85
2022-10-13T12:19:56.246Z,10.85
2022-10-13T12:22:23.971Z,15.43
2022-10-13T12:25:01.874Z,18.00
2022-10-13T12:27:34.127Z,11.80
2022-10-13T12:30:02.048Z,11.05
2022-10-13T12:32:32.179Z,14.02
2022-10-13T12:35:18.599Z,11.38
2022-10-13T12:37:45.985Z,12.70
2022-10-13T12:40:15.633Z,15.23
2022-10-13T12:42:43.950Z,17.02
2022-10-13T12:45:23.267Z,14.05
2022-10-13T12:47:53.227Z,10.82
2022-10-13T12:50:20.683Z,14.40
2022-10-13T12:52:48.609Z,13.15
2022-10-13T12:55:19.739Z,12.88
2022-10-13T12:57:49.596Z,12.10
2022-10-13T13:00:20.188Z,11.60
2022-10-13T13:02:53.519Z,10.88
2022-10-13T13:05:37.173Z,13.98
2022-10-13T13:08:20.193Z,11.82
2022-10-13T13:11:01.541Z,11.85
2022-10-13T13:13:30.107Z,18.23
2022-10-13T13:16:18.708Z,13.20
2022-10-13T13:18:47.439Z,9.15
2022-10-13T13:21:19.313Z,14.95
2022-10-13T13:23:51.278Z,12.75
2022-10-13T13:26:23.386Z,13.38
2022-10-13T13:28:52.630Z,18.95
2022-10-13T13:31:21.900Z,10.10
2022-10-13T13:33:49.347Z,12.32
2022-10-13T13:36:22.377Z,12.23
2022-10-13T13:38:52.322Z,11.07
2022-10-13T13:41:20.060Z,13.77
2022-10-13T13:43:47.152Z,15.75
2022-10-13T13:46:19.630Z,11.88
2022-10-13T13:48:46.373Z,15.05
2022-10-13T13:51:13.355Z,18.67
2022-10-13T13:53:40.568Z,14.07
2022-10-13T13:56:12.851Z,18.25
2022-10-13T13:58:39.652Z,14.63
2022-10-13T14:01:06.327Z,12.32
2022-10-13T14:03:33.006Z,15.57
2022-10-13T14:05:59.655Z,13.27
2022-10-13T14:08:31.552Z,18.10
2022-10-13T14:10:58.420Z,14.55
2022-10-13T14:13:25.144Z,12.63
2022-10-13T14:15:59.081Z,11.68
2022-10-13T14:18:25.885Z,18.25
2022-10-13T14:20:53.085Z,13.18
2022-10-13T14:23:20.048Z,12.70
2022-10-13T14:25:46.694Z,16.15
2022-10-13T14:28:17.304Z,15.65
2022-10-13T14:30:44.976Z,18.67
2022-10-13T14:33:11.637Z,23.05
2022-10-13T14:35:38.278Z,14.80
2022-10-13T14:38:06.053Z,16.33
2022-10-13T14:40:33.714Z,13.27
2022-10-13T14:43:00.428Z,11.52
2022-10-13T14:45:27.158Z,15.02
2022-10-13T14:47:53.804Z,14.30
2022-10-13T14:50:20.613Z,14.25
2022-10-13T14:52:51.825Z,12.07
2022-10-13T14:55:18.514Z,13.80
2022-10-13T14:57:45.215Z,16.42
2022-10-13T15:00:13.672Z,13.13
2022-10-13T15:02:40.356Z,16.02
2022-10-13T15:05:07.284Z,14.80
2022-10-13T15:07:36.805Z,14.98
2022-10-13T15:10:08.420Z,13.18
2022-10-13T15:12:35.163Z,15.82
2022-10-13T15:15:02.514Z,17.20
2022-10-13T15:17:30.689Z,16.17
2022-10-13T15:19:57.343Z,15.77
2022-10-13T15:22:24.409Z,13.00
2022-10-13T15:24:51.263Z,13.70
2022-10-13T15:27:17.961Z,17.23
2022-10-13T15:29:44.607Z,14.77
2022-10-13T15:32:17.990Z,13.88
2022-10-13T15:34:49.296Z,15.10
2022-10-13T15:37:16.040Z,17.67
2022-10-13T15:39:42.677Z,14.57
2022-10-13T15:42:12.066Z,15.25
2022-10-13T15:47:25.434Z,16.42
2022-10-13T15:49:52.082Z,12.48
2022-10-13T15:52:19.144Z,14.27
2022-10-13T15:54:45.993Z,15.15
2022-10-13T15:57:12.748Z,17.63
2022-10-13T15:59:39.400Z,15.25
2022-10-13T16:02:06.277Z,17.55
2022-10-13T16:04:37.313Z,16.30
2022-10-13T16:07:04.454Z,20.92
2022-10-13T16:09:31.420Z,18.55
2022-10-13T16:11:58.070Z,22.38
2022-10-13T16:14:24.690Z,14.65
2022-10-13T16:16:51.330Z,14.45
2022-10-13T16:19:17.971Z,15.93
2022-10-13T16:21:46.723Z,20.08
2022-10-13T16:24:14.604Z,14.63
2022-10-13T16:26:41.247Z,16.40
2022-10-13T16:29:07.962Z,15.27
2022-10-13T16:31:35.196Z,19.60
2022-10-13T16:34:02.088Z,20.52
2022-10-13T16:36:28.728Z,18.08
2022-10-13T16:38:55.906Z,20.35
2022-10-13T16:41:23.810Z,17.35
2022-10-13T16:43:50.758Z,17.25
2022-10-13T16:46:20.018Z,20.02
2022-10-13T16:48:47.128Z,14.07
2022-10-13T16:51:16.838Z,14.27
2022-10-13T16:53:47.930Z,14.52
2022-10-13T16:56:14.561Z,13.23
2022-10-13T16:58:45.152Z,16.08
2022-10-13T17:01:13.225Z,19.98
2022-10-13T17:03:40.472Z,14.82
2022-10-13T17:06:07.380Z,15.52
2022-10-13T17:08:34.369Z,16.33
2022-10-13T17:11:02.526Z,18.50
2022-10-13T17:13:31.282Z,15.95
2022-10-13T17:15:58.350Z,17.35
2022-10-13T17:18:26.983Z,18.88
2022-10-13T17:21:02.793Z,23.15
2022-10-13T17:23:31.064Z,21.15
2022-10-13T17:26:03.436Z,19.25
2022-10-13T17:28:30.264Z,22.38
2022-10-13T17:31:11.985Z,25.08
2022-10-13T17:33:40.228Z,22.75
2022-10-13T17:36:15.963Z,19.17
2022-10-13T17:38:43.583Z,24.98
2022-10-13T17:41:11.102Z,21.70
2022-10-13T17:43:47.046Z,19.88
2022-10-13T17:46:37.555Z,17.65
2022-10-13T17:49:07.244Z,21.17
2022-10-13T17:51:33.995Z,16.15
2022-10-13T17:54:00.965Z,15.63
2022-10-13T17:56:28.782Z,15.10
2022-10-13T17:58:56.776Z,15.35
2022-10-13T18:01:29.989Z,17.52
2022-10-13T18:04:05.664Z,15.77
2022-10-13T18:06:38.549Z,19.50
2022-10-13T18:09:12.204Z,14.68
2022-10-13T18:11:39.673Z,20.55
2022-10-13T18:14:06.722Z,17.10
2022-10-13T18:16:34.214Z,18.00
2022-10-13T18:19:02.040Z,17.35
2022-10-13T18:21:29.326Z,17.95
2022-10-13T18:23:57.778Z,21.08
2022-10-13T18:26:25.877Z,20.25
2022-10-13T18:28:53.142Z,18.73
2022-10-13T18:31:23.045Z,19.25
2022-10-13T18:33:59.001Z,21.33
2022-10-13T18:36:29.738Z,18.45
2022-10-13T18:39:01.884Z,18.50
2022-10-13T18:43:55.144Z,20.42
2022-10-13T18:46:22.739Z,17.92
2022-10-13T18:48:50.692Z,17.02
2022-10-13T18:51:19.072Z,16.02
2022-10-13T18:53:48.518Z,16.35
2022-10-13T18:56:23.050Z,15.32
2022-10-13T18:58:53.504Z,18.33
2022-10-13T19:01:25.574Z,17.35
2022-10-13T19:03:53.413Z,17.77
2022-10-13T19:06:28.015Z,18.77
2022-10-13T19:08:56.490Z,25.55
2022-10-13T19:11:24.221Z,27.20
2022-10-13T19:13:51.706Z,28.17
2022-10-13T19:16:20.825Z,26.60
2022-10-13T19:18:48.546Z,21.10
2022-10-13T19:21:16.118Z,22.65
2022-10-13T19:23:43.408Z,22.75
2022-10-13T19:26:24.104Z,24.17
2022-10-13T19:28:55.286Z,29.15
2022-10-13T19:31:23.837Z,23.20
2022-10-13T19:33:52.515Z,19.25
2022-10-13T19:36:39.293Z,18.90
2022-10-13T19:39:12.655Z,14.40
2022-10-13T19:41:39.332Z,18.92
2022-10-13T19:44:06.001Z,18.08
2022-10-13T19:46:40.375Z,18.52
2022-10-13T19:49:07.975Z,15.90
2022-10-13T19:51:35.527Z,16.95
2022-10-13T19:54:02.354Z,20.92
2022-10-13T19:56:34.184Z,17.40
2022-10-13T19:59:04.278Z,19.05
2022-10-13T20:01:32.332Z,21.13
2022-10-13T20:04:01.006Z,16.73
2022-10-13T20:06:27.759Z,15.70
2022-10-13T20:08:54.396Z,19.55
2022-10-13T20:11:24.094Z,17.02
2022-10-13T20:13:52.056Z,19.00
2022-10-13T20:16:21.403Z,16.30
2022-10-13T20:18:56.968Z,15.98
2022-10-13T20:21:24.813Z,16.77
2022-10-13T20:23:51.991Z,14.93
2022-10-13T20:26:19.568Z,15.23
2022-10-13T20:28:48.911Z,17.40
2022-10-13T20:31:17.500Z,14.65
2022-10-13T20:33:44.769Z,16.75
2022-10-13T20:36:14.178Z,20.08
2022-10-13T20:38:40.975Z,21.65
2022-10-13T20:41:19.089Z,18.10
2022-10-13T20:43:47.170Z,20.35
2022-10-13T20:46:14.742Z,17.95
2022-10-13T20:49:09.442Z,19.90
2022-10-13T20:51:29.300Z,18.63
2022-10-13T20:53:55.999Z,15.68
2022-10-13T20:56:24.867Z,22.40
2022-10-13T20:58:52.038Z,19.77
2022-10-13T21:01:20.566Z,18.15
2022-10-13T21:03:51.441Z,16.50
2022-10-13T21:06:18.150Z,18.55
2022-10-13T21:08:46.455Z,19.70
2022-10-13T21:11:15.649Z,20.05
2022-10-13T21:13:43.759Z,15.18
2022-10-13T21:16:16.224Z,13.60
2022-10-13T21:18:50.404Z,14.35
2022-10-13T21:21:28.907Z,17.42
2022-10-13T21:23:58.269Z,16.98
2022-10-13T21:26:26.747Z,14.13
2022-10-13T21:28:53.464Z,16.17
2022-10-13T21:31:22.725Z,13.60
2022-10-13T21:33:50.114Z,16.42
2022-10-13T21:36:19.952Z,13.07
2022-10-13T21:38:48.079Z,14.23
2022-10-13T21:41:15.487Z,15.00
2022-10-13T21:43:42.386Z,15.60
2022-10-13T21:46:27.086Z,12.10
2022-10-13T21:49:06.011Z,14.60
2022-10-13T21:51:37.294Z,16.48
2022-10-13T21:54:10.955Z,13.48
2022-10-13T21:56:39.472Z,14.55
2022-10-13T21:59:06.743Z,12.57
2022-10-13T22:01:33.745Z,12.20
2022-10-13T22:04:02.545Z,16.25
2022-10-13T22:06:32.084Z,11.57
2022-10-13T22:09:00.591Z,15.13
2022-10-13T22:11:29.849Z,20.77
2022-10-13T22:13:57.822Z,11.90
2022-10-13T22:16:28.090Z,12.48
2022-10-13T22:18:56.465Z,12.35
2022-10-13T22:21:25.840Z,16.52
2022-10-13T22:23:57.126Z,11.95
2022-10-13T22:26:24.104Z,8.30
2022-10-13T22:28:51.908Z,9.13
2022-10-13T22:31:18.870Z,12.07
2022-10-13T22:33:46.474Z,10.18
2022-10-13T22:36:18.276Z,10.93
2022-10-13T22:38:46.912Z,9.43
2022-10-13T22:41:15.280Z,10.75
2022-10-13T22:43:46.751Z,12.43
2022-10-13T22:46:15.913Z,8.40
2022-10-13T22:48:43.292Z,9.52
2022-10-13T22:51:12.228Z,12.43
2022-10-13T22:53:39.809Z,15.23
2022-10-13T22:56:08.867Z,10.45
2022-10-13T22:58:36.844Z,11.10
2022-10-13T23:01:13.896Z,11.70
2022-10-13T23:03:41.366Z,10.82
2022-10-13T23:06:14.084Z,9.18
2022-10-13T23:08:41.196Z,12.93
2022-10-13T23:11:08.113Z,10.27
2022-10-13T23:13:34.814Z,12.43
2022-10-13T23:16:13.749Z,9.05
2022-10-13T23:18:42.600Z,9.18
2022-10-13T23:21:24.423Z,7.72
2022-10-13T23:23:59.785Z,10.15
2022-10-13T23:26:27.335Z,8.77
2022-10-13T23:28:56.777Z,9.50
2022-10-13T23:31:24.202Z,7.47
2022-10-13T23:33:50.978Z,8.27
2022-10-13T23:36:20.574Z,10.88
2022-10-13T23:41:20.697Z,8.77
2022-10-13T23:43:47.347Z,11.35
2022-10-13T23:46:14.343Z,12.48
2022-10-13T23:48:41.301Z,10.00
2022-10-13T23:51:13.721Z,9.93
2022-10-13T23:53:40.979Z,8.85
2022-10-13T23:56:09.542Z,8.85
2022-10-13T23:58:37.893Z,9.05
